createdAt,value
2023-04-19T00:00:24.509Z,77.85
2023-04-19T00:01:24.824Z,78.05
2023-04-19T00:02:25.199Z,78.05
2023-04-19T00:03:25.635Z,77.95
2023-04-19T00:04:25.894Z,78.26
2023-04-19T00:05:25.936Z,78.46
2023-04-19T00:06:26.209Z,78.36
2023-04-19T00:07:26.567Z,78.36
2023-04-19T00:08:26.779Z,78.36
2023-04-19T00:09:27.088Z,78.30
2023-04-19T00:10:27.371Z,78.16
2023-04-19T00:11:27.621Z,78.26
2023-04-19T00:12:27.916Z,78.46
2023-04-19T00:13:28.178Z,78.60
2023-04-19T00:14:28.458Z,78.70
2023-04-19T00:15:28.749Z,78.80
2023-04-19T00:16:29.068Z,79.00
2023-04-19T00:17:29.404Z,79.11
2023-04-19T00:18:29.690Z,79.32
2023-04-19T00:19:29.977Z,79.41
2023-04-19T00:20:30.232Z,79.32
2023-04-19T00:21:30.507Z,79.11
2023-04-19T00:22:30.791Z,78.91
2023-04-19T00:23:31.077Z,79.00
2023-04-19T00:24:31.396Z,79.11
2023-04-19T00:25:31.689Z,78.80
2023-04-19T00:26:31.938Z,78.87
2023-04-19T00:27:32.223Z,78.80
2023-04-19T00:28:32.520Z,78.70
2023-04-19T00:29:32.828Z,78.60
2023-04-19T00:30:33.083Z,78.77
2023-04-19T00:31:33.344Z,78.91
2023-04-19T00:32:33.696Z,79.00
2023-04-19T00:33:33.921Z,79.21
2023-04-19T00:34:34.191Z,79.21
2023-04-19T00:35:34.468Z,79.41
2023-04-19T00:36:34.755Z,79.52
2023-04-19T00:37:35.050Z,79.62
2023-04-19T00:38:35.338Z,79.82
2023-04-19T00:39:35.633Z,79.93
2023-04-19T00:40:35.915Z,79.82
2023-04-19T00:41:36.244Z,79.82
2023-04-19T00:42:36.518Z,79.93
2023-04-19T00:43:36.798Z,79.93
2023-04-19T00:44:37.097Z,79.82
2023-04-19T00:45:37.400Z,79.82
2023-04-19T00:46:37.885Z,79.82
2023-04-19T00:47:37.917Z,79.93
2023-04-19T00:48:38.195Z,80.02
2023-04-19T00:49:38.453Z,80.23
2023-04-19T00:50:38.740Z,80.43
2023-04-19T00:51:39.007Z,80.43
2023-04-19T00:52:39.293Z,80.68
2023-04-19T00:53:39.588Z,80.68
2023-04-19T00:54:39.847Z,80.78
2023-04-19T00:55:40.146Z,80.88
2023-04-19T00:56:40.479Z,80.98
2023-04-19T00:57:40.733Z,81.18
2023-04-19T00:58:40.997Z,81.18
2023-04-19T00:59:41.288Z,81.29
2023-04-19T01:00:41.587Z,81.29
2023-04-19T01:01:41.929Z,81.39
2023-04-19T01:02:42.272Z,81.49
2023-04-19T01:03:42.598Z,81.90
2023-04-19T01:04:42.660Z,81.59
2023-04-19T01:05:42.931Z,81.59
2023-04-19T01:06:43.278Z,81.59
2023-04-19T01:07:43.567Z,81.80
2023-04-19T01:08:43.797Z,81.70
2023-04-19T01:09:44.100Z,81.49
2023-04-19T01:10:44.386Z,81.80
2023-04-19T01:11:44.677Z,82.24
2023-04-19T01:12:44.962Z,82.35
2023-04-19T01:13:45.239Z,82.35
2023-04-19T01:14:45.565Z,82.65
2023-04-19T01:15:45.882Z,82.59
2023-04-19T01:16:46.161Z,82.89
2023-04-19T01:17:46.430Z,83.00
2023-04-19T01:18:46.702Z,83.00
2023-04-19T01:19:46.951Z,82.89
2023-04-19T01:20:47.235Z,83.30
2023-04-19T01:21:47.549Z,83.51
2023-04-19T01:22:47.811Z,83.75
2023-04-19T01:23:48.035Z,83.85
2023-04-19T01:24:48.353Z,83.95
2023-04-19T01:25:48.589Z,83.85
2023-04-19T01:26:48.962Z,84.09
2023-04-19T01:27:49.231Z,84.50
2023-04-19T01:28:49.443Z,84.91
2023-04-19T01:29:49.738Z,85.02
2023-04-19T01:30:50.066Z,85.83
2023-04-19T01:31:50.296Z,85.88
2023-04-19T01:32:50.675Z,86.08
2023-04-19T01:33:50.887Z,85.97
2023-04-19T01:34:51.163Z,86.29
2023-04-19T01:35:51.465Z,86.18
2023-04-19T01:36:51.728Z,86.38
2023-04-19T01:37:52.028Z,86.29
2023-04-19T01:38:52.304Z,86.43
2023-04-19T01:39:52.644Z,86.53
2023-04-19T01:40:52.886Z,86.63
2023-04-19T01:41:53.203Z,86.63
2023-04-19T01:42:53.538Z,86.94
2023-04-19T01:43:53.752Z,86.94
2023-04-19T01:44:54.095Z,86.83
2023-04-19T01:45:54.317Z,87.24
2023-04-19T01:46:54.658Z,87.14
2023-04-19T01:47:54.969Z,87.04
2023-04-19T01:48:55.088Z,87.35
2023-04-19T01:49:55.344Z,87.55
2023-04-19T01:50:55.593Z,87.65
2023-04-19T01:51:55.881Z,88.10
2023-04-19T01:52:56.193Z,88.10
2023-04-19T01:53:56.440Z,88.20
2023-04-19T01:54:56.716Z,88.10
2023-04-19T01:55:56.996Z,88.10
2023-04-19T01:56:57.307Z,88.20
2023-04-19T01:57:57.565Z,88.00
2023-04-19T01:58:57.856Z,88.41
2023-04-19T01:59:58.149Z,88.31
2023-04-19T02:00:58.515Z,87.90
2023-04-19T02:01:58.751Z,87.79
2023-04-19T02:02:59.252Z,88.31
2023-04-19T02:03:59.480Z,88.62
2023-04-19T02:04:59.612Z,88.92
2023-04-19T02:05:59.908Z,88.82
2023-04-19T02:07:00.171Z,88.62
2023-04-19T02:08:00.472Z,88.82
2023-04-19T02:09:00.756Z,89.03
2023-04-19T02:10:01.011Z,88.62
2023-04-19T02:11:01.324Z,88.62
2023-04-19T02:12:01.646Z,88.71
2023-04-19T02:13:01.907Z,88.65
2023-04-19T02:14:02.214Z,89.03
2023-04-19T02:15:02.482Z,89.17
2023-04-19T02:16:02.754Z,89.47
2023-04-19T02:17:03.051Z,89.84
2023-04-19T02:18:03.366Z,89.94
2023-04-19T02:19:03.608Z,89.84
2023-04-19T02:20:03.908Z,90.15
2023-04-19T02:21:04.193Z,90.05
2023-04-19T02:22:04.450Z,89.94
2023-04-19T02:23:04.735Z,89.94
2023-04-19T02:24:05.024Z,89.84
2023-04-19T02:25:05.290Z,89.74
2023-04-19T02:26:05.573Z,89.74
2023-04-19T02:27:05.836Z,89.64
2023-04-19T02:28:06.151Z,89.64
2023-04-19T02:29:07.041Z,89.53
2023-04-19T02:30:06.685Z,89.23
2023-04-19T02:31:07.010Z,89.12
2023-04-19T02:32:07.276Z,89.23
2023-04-19T02:33:07.528Z,89.80
2023-04-19T02:34:07.755Z,89.80
2023-04-19T02:35:08.049Z,89.50
2023-04-19T02:36:08.360Z,89.43
2023-04-19T02:37:08.708Z,89.39
2023-04-19T02:38:08.974Z,89.33
2023-04-19T02:39:09.262Z,89.29
2023-04-19T02:40:09.532Z,89.23
2023-04-19T02:41:09.822Z,89.23
2023-04-19T02:42:10.173Z,89.23
2023-04-19T02:43:10.397Z,89.18
2023-04-19T02:44:10.648Z,89.33
2023-04-19T02:45:10.959Z,89.39
2023-04-19T02:46:11.291Z,89.50
2023-04-19T02:47:11.573Z,89.39
2023-04-19T02:48:11.869Z,89.29
2023-04-19T02:49:12.126Z,89.39
2023-04-19T02:50:12.412Z,89.80
2023-04-19T02:51:12.696Z,90.00
2023-04-19T02:52:13.001Z,89.70
2023-04-19T02:53:13.252Z,89.70
2023-04-19T02:54:13.664Z,89.70
2023-04-19T02:55:13.902Z,90.21
2023-04-19T02:56:14.179Z,90.62
2023-04-19T02:57:14.478Z,90.72
2023-04-19T02:58:14.741Z,90.72
2023-04-19T02:59:15.041Z,90.62
2023-04-19T03:00:15.335Z,90.21
2023-04-19T03:01:15.641Z,90.00
2023-04-19T03:02:15.960Z,90.21
2023-04-19T03:03:16.283Z,90.41
2023-04-19T03:04:16.715Z,90.41
2023-04-19T03:05:16.736Z,90.52
2023-04-19T03:06:16.973Z,90.11
2023-04-19T03:07:17.272Z,90.41
2023-04-19T03:08:17.687Z,90.27
2023-04-19T03:09:17.804Z,90.17
2023-04-19T03:10:18.094Z,90.17
2023-04-19T03:11:18.344Z,90.17
2023-04-19T03:12:18.672Z,90.17
2023-04-19T03:13:18.934Z,90.27
2023-04-19T03:14:19.269Z,90.27
2023-04-19T03:15:19.514Z,90.06
2023-04-19T03:16:19.831Z,90.06
2023-04-19T03:17:20.119Z,89.97
2023-04-19T03:18:20.382Z,90.06
2023-04-19T03:19:20.664Z,90.17
2023-04-19T03:20:20.942Z,90.27
2023-04-19T03:21:21.241Z,90.27
2023-04-19T03:22:21.531Z,90.06
2023-04-19T03:23:21.802Z,90.06
2023-04-19T03:24:22.069Z,90.06
2023-04-19T03:25:22.388Z,89.76
2023-04-19T03:26:22.668Z,90.06
2023-04-19T03:27:22.950Z,90.17
2023-04-19T03:28:23.193Z,89.97
2023-04-19T03:29:23.489Z,89.76
2023-04-19T03:30:23.769Z,89.86
2023-04-19T03:31:24.120Z,90.06
2023-04-19T03:32:24.504Z,89.86
2023-04-19T03:33:24.617Z,90.27
2023-04-19T03:34:24.940Z,90.17
2023-04-19T03:35:25.176Z,90.37
2023-04-19T03:36:25.472Z,90.58
2023-04-19T03:37:25.828Z,90.47
2023-04-19T03:38:26.084Z,90.47
2023-04-19T03:39:26.380Z,90.37
2023-04-19T03:40:26.661Z,90.37
2023-04-19T03:41:26.957Z,90.12
2023-04-19T03:42:28.999Z,90.02
2023-04-19T03:43:27.523Z,89.82
2023-04-19T03:44:27.841Z,89.72
2023-04-19T03:45:28.131Z,89.61
2023-04-19T03:46:28.434Z,89.51
2023-04-19T03:47:28.793Z,89.51
2023-04-19T03:48:28.986Z,89.51
2023-04-19T03:49:29.319Z,89.51
2023-04-19T03:50:29.596Z,89.41
2023-04-19T03:51:29.913Z,89.51
2023-04-19T03:52:30.222Z,89.51
2023-04-19T03:53:30.488Z,89.51
2023-04-19T03:54:30.772Z,89.51
2023-04-19T03:55:31.060Z,89.61
2023-04-19T03:56:31.387Z,89.61
2023-04-19T03:57:31.655Z,89.51
2023-04-19T03:58:31.975Z,89.61
2023-04-19T03:59:32.257Z,89.51
2023-04-19T04:00:32.573Z,89.51
2023-04-19T04:01:32.875Z,89.61
2023-04-19T04:02:33.351Z,89.82
2023-04-19T04:03:33.603Z,89.92
2023-04-19T04:04:33.937Z,89.92
2023-04-19T04:05:34.216Z,89.82
2023-04-19T04:06:34.444Z,89.61
2023-04-19T04:07:34.699Z,89.51
2023-04-19T04:08:34.994Z,89.61
2023-04-19T04:09:35.301Z,89.82
2023-04-19T04:10:35.613Z,89.82
2023-04-19T04:11:36.001Z,90.12
2023-04-19T04:12:36.246Z,90.12
2023-04-19T04:13:36.531Z,89.92
2023-04-19T04:14:36.821Z,90.12
2023-04-19T04:15:37.142Z,90.23
2023-04-19T04:16:37.486Z,90.33
2023-04-19T04:17:37.775Z,90.12
2023-04-19T04:18:38.079Z,90.12
2023-04-19T04:19:38.336Z,90.12
2023-04-19T04:20:38.666Z,90.02
2023-04-19T04:21:39.014Z,90.12
2023-04-19T04:22:39.281Z,90.02
2023-04-19T04:23:39.624Z,90.02
2023-04-19T04:24:39.928Z,89.92
2023-04-19T04:25:40.263Z,89.92
2023-04-19T04:26:40.579Z,89.92
2023-04-19T04:27:40.981Z,89.92
2023-04-19T04:28:41.206Z,89.92
2023-04-19T04:29:41.666Z,89.72
2023-04-19T04:30:41.817Z,89.72
2023-04-19T04:31:42.306Z,89.51
2023-04-19T04:32:42.562Z,89.51
2023-04-19T04:33:42.888Z,89.41
2023-04-19T04:34:43.206Z,89.41
2023-04-19T04:35:43.466Z,89.51
2023-04-19T04:36:43.732Z,89.17
2023-04-19T04:37:44.040Z,89.06
2023-04-19T04:38:44.213Z,88.96
2023-04-19T04:39:44.563Z,88.76
2023-04-19T04:40:44.868Z,88.65
2023-04-19T04:41:45.157Z,88.55
2023-04-19T04:42:45.581Z,88.45
2023-04-19T04:43:45.772Z,88.24
2023-04-19T04:44:46.112Z,88.14
2023-04-19T04:45:46.455Z,88.24
2023-04-19T04:46:46.795Z,88.14
2023-04-19T04:47:47.110Z,88.24
2023-04-19T04:48:47.451Z,88.24
2023-04-19T04:49:47.602Z,88.35
2023-04-19T04:50:47.905Z,88.35
2023-04-19T04:51:48.259Z,88.45
2023-04-19T04:52:48.617Z,88.65
2023-04-19T04:53:48.950Z,88.65
2023-04-19T04:54:49.269Z,88.65
2023-04-19T04:55:49.598Z,88.65
2023-04-19T04:56:50.027Z,88.76
2023-04-19T04:57:50.179Z,88.65
2023-04-19T04:58:50.457Z,88.55
2023-04-19T04:59:50.773Z,88.45
2023-04-19T05:00:51.102Z,88.55
2023-04-19T05:01:51.397Z,88.45
2023-04-19T05:02:51.761Z,88.55
2023-04-19T05:03:51.986Z,88.65
2023-04-19T05:04:52.220Z,88.85
2023-04-19T05:05:52.533Z,88.65
2023-04-19T05:06:52.795Z,88.65
2023-04-19T05:07:53.084Z,88.65
2023-04-19T05:08:53.360Z,88.65
2023-04-19T05:09:53.522Z,88.65
2023-04-19T05:10:53.851Z,88.55
2023-04-19T05:11:54.209Z,88.76
2023-04-19T05:12:54.446Z,88.76
2023-04-19T05:13:54.644Z,88.85
2023-04-19T05:14:54.865Z,88.76
2023-04-19T05:15:55.250Z,88.76
2023-04-19T05:16:55.439Z,88.85
2023-04-19T05:17:55.816Z,88.85
2023-04-19T05:18:56.076Z,88.85
2023-04-19T05:19:56.418Z,88.85
2023-04-19T05:20:56.731Z,88.76
2023-04-19T05:21:57.042Z,88.65
2023-04-19T05:22:57.388Z,88.65
2023-04-19T05:23:57.586Z,88.76
2023-04-19T05:24:57.952Z,88.45
2023-04-19T05:25:58.164Z,88.45
2023-04-19T05:26:58.509Z,88.45
2023-04-19T05:27:58.858Z,88.45
2023-04-19T05:28:59.079Z,88.41
2023-04-19T05:29:59.310Z,88.41
2023-04-19T05:30:59.590Z,88.41
2023-04-19T05:31:59.866Z,88.51
2023-04-19T05:33:00.288Z,88.61
2023-04-19T05:34:00.443Z,88.61
2023-04-19T05:35:00.803Z,88.31
2023-04-19T05:36:01.013Z,88.10
2023-04-19T05:37:01.400Z,88.20
2023-04-19T05:38:01.718Z,88.00
2023-04-19T05:39:02.023Z,88.10
2023-04-19T05:40:02.357Z,88.10
2023-04-19T05:41:02.666Z,88.31
2023-04-19T05:42:03.038Z,88.31
2023-04-19T05:43:03.609Z,88.41
2023-04-19T05:44:03.641Z,88.41
2023-04-19T05:45:06.002Z,88.31
2023-04-19T05:46:04.273Z,88.41
2023-04-19T05:47:04.603Z,88.31
2023-04-19T05:48:04.974Z,88.31
2023-04-19T05:49:05.149Z,88.20
2023-04-19T05:50:05.484Z,88.31
2023-04-19T05:51:05.907Z,88.20
2023-04-19T05:52:06.019Z,88.20
2023-04-19T05:53:06.360Z,88.41
2023-04-19T05:54:06.735Z,88.61
2023-04-19T05:55:06.913Z,88.51
2023-04-19T05:56:07.284Z,88.51
2023-04-19T05:57:07.625Z,88.41
2023-04-19T05:58:07.837Z,88.51
2023-04-19T05:59:08.059Z,88.37
2023-04-19T06:00:08.387Z,87.96
2023-04-19T06:01:08.674Z,87.85
2023-04-19T06:02:09.071Z,87.76
2023-04-19T06:03:09.382Z,87.65
2023-04-19T06:04:09.471Z,87.65
2023-04-19T06:05:11.001Z,87.55
2023-04-19T06:06:09.995Z,87.65
2023-04-19T06:07:22.254Z,87.55
2023-04-19T06:08:11.700Z,87.55
2023-04-19T06:09:10.900Z,87.55
2023-04-19T06:10:11.231Z,87.45
2023-04-19T06:11:23.014Z,87.55
2023-04-19T06:12:12.830Z,87.65
2023-04-19T06:13:12.207Z,87.55
2023-04-19T06:14:12.525Z,87.45
2023-04-19T06:15:12.713Z,87.45
2023-04-19T06:16:13.132Z,87.45
2023-04-19T06:17:13.401Z,87.55
2023-04-19T06:18:18.881Z,87.45
2023-04-19T06:19:15.070Z,87.45
2023-04-19T06:20:14.312Z,87.45
2023-04-19T06:21:14.666Z,87.14
2023-04-19T06:22:14.931Z,87.24
2023-04-19T06:23:15.464Z,87.04
2023-04-19T06:24:15.639Z,86.83
2023-04-19T06:25:15.627Z,86.94
2023-04-19T06:26:15.984Z,86.73
2023-04-19T06:27:16.239Z,86.73
2023-04-19T06:28:16.596Z,86.33
2023-04-19T06:29:16.825Z,86.43
2023-04-19T06:30:21.804Z,85.82
2023-04-19T06:31:17.400Z,85.71
2023-04-19T06:32:17.769Z,85.61
2023-04-19T06:33:18.257Z,85.61
2023-04-19T06:34:18.528Z,85.61
2023-04-19T06:35:18.555Z,85.61
2023-04-19T06:36:18.829Z,85.10
2023-04-19T06:37:19.040Z,85.30
2023-04-19T06:38:19.343Z,85.30
2023-04-19T06:39:19.579Z,85.10
2023-04-19T06:40:20.100Z,85.41
2023-04-19T06:41:20.170Z,85.41
2023-04-19T06:42:20.476Z,85.00
2023-04-19T06:43:20.649Z,84.90
2023-04-19T06:44:20.930Z,84.28
2023-04-19T06:45:21.411Z,84.49
2023-04-19T06:46:21.442Z,84.08
2023-04-19T06:47:21.746Z,84.18
2023-04-19T06:48:22.067Z,83.98
2023-04-19T06:49:22.285Z,83.98
2023-04-19T06:50:22.584Z,84.08
2023-04-19T06:51:22.798Z,84.08
2023-04-19T06:52:23.015Z,83.73
2023-04-19T06:53:23.314Z,83.84
2023-04-19T06:54:23.497Z,83.94
2023-04-19T06:55:23.990Z,83.94
2023-04-19T06:56:24.111Z,83.63
2023-04-19T06:57:24.371Z,83.63
2023-04-19T06:58:24.648Z,83.43
2023-04-19T06:59:24.866Z,83.02
2023-04-19T07:00:25.136Z,83.09
2023-04-19T07:01:25.398Z,82.98
2023-04-19T07:02:25.739Z,82.68
2023-04-19T07:03:25.996Z,82.68
2023-04-19T07:04:26.235Z,82.47
2023-04-19T07:05:26.468Z,82.37
2023-04-19T07:06:26.665Z,82.37
2023-04-19T07:07:26.927Z,82.13
2023-04-19T07:08:34.822Z,82.03
2023-04-19T07:09:28.434Z,81.82
2023-04-19T07:10:27.750Z,81.27
2023-04-19T07:11:27.982Z,81.07
2023-04-19T07:12:28.233Z,80.36
2023-04-19T07:13:28.426Z,80.36
2023-04-19T07:14:28.673Z,80.22
2023-04-19T07:15:28.927Z,79.41
2023-04-19T07:16:29.216Z,79.41
2023-04-19T07:17:29.463Z,79.10
2023-04-19T07:18:29.711Z,78.86
2023-04-19T07:19:29.937Z,77.81
2023-04-19T07:20:30.143Z,78.01
2023-04-19T07:21:30.423Z,76.86
2023-04-19T07:22:30.649Z,75.70
2023-04-19T07:23:30.916Z,75.49
2023-04-19T07:24:31.199Z,74.44
2023-04-19T07:25:31.392Z,73.77
2023-04-19T07:26:31.628Z,71.77
2023-04-19T07:27:31.984Z,71.23
2023-04-19T07:28:32.425Z,71.09
2023-04-19T07:29:32.630Z,69.07
2023-04-19T07:30:32.854Z,67.23
2023-04-19T07:31:33.107Z,61.65
2023-04-19T07:32:33.447Z,59.28
2023-04-19T07:33:33.724Z,61.23
2023-04-19T07:34:33.837Z,61.08
2023-04-19T07:35:34.232Z,61.69
2023-04-19T07:36:34.499Z,62.09
2023-04-19T07:37:34.769Z,60.83
2023-04-19T07:38:35.194Z,59.76
2023-04-19T07:39:35.241Z,57.92
2023-04-19T07:40:35.451Z,56.76
2023-04-19T07:41:36.423Z,56.29
2023-04-19T07:42:36.098Z,58.14
2023-04-19T07:43:38.087Z,59.70
2023-04-19T07:44:36.738Z,61.07
2023-04-19T07:45:37.078Z,62.38
2023-04-19T07:46:37.421Z,62.41
2023-04-19T07:47:37.811Z,63.18
2023-04-19T07:48:37.992Z,63.95
2023-04-19T07:49:38.277Z,65.36
2023-04-19T07:50:38.591Z,65.56
2023-04-19T07:51:38.944Z,65.36
2023-04-19T07:52:39.208Z,65.84
2023-04-19T07:53:39.537Z,64.73
2023-04-19T07:54:39.775Z,64.83
2023-04-19T07:55:39.976Z,64.59
2023-04-19T07:56:40.293Z,63.78
2023-04-19T07:57:40.605Z,63.99
2023-04-19T07:58:40.976Z,63.92
2023-04-19T07:59:41.193Z,64.65
2023-04-19T08:00:41.424Z,65.70
2023-04-19T08:01:41.727Z,66.24
2023-04-19T08:02:42.047Z,66.57
2023-04-19T08:03:42.386Z,67.21
2023-04-19T08:04:42.866Z,67.41
2023-04-19T08:05:42.901Z,67.51
2023-04-19T08:06:43.117Z,67.48
2023-04-19T08:07:43.407Z,66.84
2023-04-19T08:08:43.707Z,65.09
2023-04-19T08:09:44.111Z,64.89
2023-04-19T08:10:44.460Z,64.86
2023-04-19T08:11:44.717Z,64.15
2023-04-19T08:13:01.098Z,65.39
2023-04-19T08:13:59.487Z,64.86
2023-04-19T08:14:58.630Z,64.86
2023-04-19T08:17:46.388Z,62.76
2023-04-19T08:18:46.721Z,61.69
2023-04-19T08:19:47.108Z,57.06
2023-04-19T08:20:47.297Z,52.92
2023-04-19T08:21:47.578Z,50.97
2023-04-19T08:22:47.949Z,47.21
2023-04-19T08:23:48.662Z,44.70
2023-04-19T08:24:48.443Z,44.46
2023-04-19T08:25:48.758Z,42.55
2023-04-19T08:26:48.990Z,41.93
2023-04-19T08:27:49.208Z,41.61
2023-04-19T08:28:49.548Z,42.80
2023-04-19T08:29:49.823Z,41.58
2023-04-19T08:30:50.010Z,40.60
2023-04-19T08:31:50.249Z,41.77
2023-04-19T08:32:50.517Z,44.09
2023-04-19T08:33:50.900Z,45.51
2023-04-19T08:34:51.112Z,45.51
2023-04-19T08:35:51.298Z,45.12
2023-04-19T08:37:02.771Z,43.21
2023-04-19T08:37:52.813Z,43.94
2023-04-19T08:39:04.307Z,40.90
2023-04-19T08:39:53.357Z,40.52
2023-04-19T08:40:52.659Z,40.56
2023-04-19T08:42:04.937Z,42.17
2023-04-19T08:42:54.164Z,42.65
2023-04-19T08:43:53.503Z,40.92
2023-04-19T08:45:54.067Z,40.56
2023-04-19T08:46:54.333Z,40.58
2023-04-19T08:48:00.602Z,41.60
2023-04-19T08:48:55.926Z,42.29
2023-04-19T08:50:07.072Z,41.61
2023-04-19T08:51:05.098Z,42.95
2023-04-19T08:51:56.719Z,43.39
2023-04-19T08:53:00.841Z,44.47
2023-04-19T08:53:57.246Z,46.78
2023-04-19T08:54:56.496Z,48.86
2023-04-19T08:56:10.704Z,50.76
2023-04-19T08:56:58.024Z,50.18
2023-04-19T08:57:57.335Z,50.29
2023-04-19T08:59:19.524Z,50.61
2023-04-19T08:59:58.742Z,50.35
2023-04-19T09:00:58.158Z,51.59
2023-04-19T09:01:58.450Z,52.84
2023-04-19T09:02:58.862Z,54.35
2023-04-19T09:04:04.992Z,53.27
2023-04-19T09:05:00.358Z,53.60
2023-04-19T09:05:59.719Z,53.52
2023-04-19T09:06:59.807Z,55.29
2023-04-19T09:07:59.958Z,55.79
2023-04-19T09:09:00.389Z,56.07
2023-04-19T09:10:03.368Z,56.48
2023-04-19T09:11:00.903Z,56.65
2023-04-19T09:12:01.241Z,55.24
2023-04-19T09:13:01.907Z,55.74
2023-04-19T09:14:01.874Z,54.89
2023-04-19T09:15:02.849Z,56.17
2023-04-19T09:16:02.566Z,57.25
2023-04-19T09:17:02.719Z,57.15
2023-04-19T09:18:03.088Z,55.06
2023-04-19T09:20:04.673Z,55.36
2023-04-19T09:21:04.003Z,54.46
2023-04-19T09:22:04.320Z,54.56
2023-04-19T09:23:04.670Z,55.09
2023-04-19T09:24:04.996Z,56.70
2023-04-19T09:26:22.966Z,55.19
2023-04-19T09:27:06.885Z,55.49
2023-04-19T09:28:06.208Z,54.66
2023-04-19T09:29:06.525Z,54.46
2023-04-19T09:30:09.288Z,54.89
2023-04-19T09:31:29.865Z,54.91
2023-04-19T09:32:08.581Z,55.21
2023-04-19T09:33:07.936Z,54.53
2023-04-19T09:34:08.132Z,55.85
2023-04-19T09:35:08.451Z,56.05
2023-04-19T09:36:08.763Z,54.13
2023-04-19T09:37:15.728Z,55.07
2023-04-19T09:38:10.430Z,55.24
2023-04-19T09:39:09.691Z,55.54
2023-04-19T09:40:10.028Z,55.54
2023-04-19T09:41:10.175Z,54.94
2023-04-19T09:42:10.483Z,54.31
2023-04-19T09:43:45.313Z,54.89
2023-04-19T09:44:47.403Z,52.56
2023-04-19T09:45:31.023Z,52.67
2023-04-19T09:46:12.658Z,52.16
2023-04-19T09:47:11.908Z,52.26
2023-04-19T09:48:12.222Z,52.06
2023-04-19T09:49:21.223Z,53.80
2023-04-19T09:51:14.697Z,51.66
2023-04-19T09:52:13.340Z,51.76
2023-04-19T09:53:13.641Z,51.25
2023-04-19T09:54:13.944Z,50.67
2023-04-19T09:55:24.912Z,51.86
2023-04-19T09:56:15.606Z,51.05
2023-04-19T09:57:14.820Z,52.16
2023-04-19T09:58:15.158Z,52.87
2023-04-19T09:59:20.841Z,52.36
2023-04-19T10:00:16.696Z,52.41
2023-04-19T10:01:16.935Z,53.32
2023-04-19T10:02:16.316Z,53.32
2023-04-19T10:03:16.825Z,52.84
2023-04-19T10:05:21.197Z,52.82
2023-04-19T10:06:40.052Z,52.82
2023-04-19T10:07:29.942Z,53.52
2023-04-19T10:08:19.097Z,54.23
2023-04-19T10:09:18.299Z,53.42
2023-04-19T10:10:20.866Z,52.72
2023-04-19T10:11:18.923Z,53.50
2023-04-19T10:12:39.042Z,52.72
2023-04-19T10:13:23.205Z,52.82
2023-04-19T10:14:19.795Z,52.11
2023-04-19T10:15:20.184Z,52.41
2023-04-19T10:16:20.917Z,52.61
2023-04-19T10:17:21.867Z,51.40
2023-04-19T10:18:21.002Z,49.91
2023-04-19T10:19:21.335Z,50.01
2023-04-19T10:20:21.697Z,49.10
2023-04-19T10:21:21.996Z,48.68
2023-04-19T10:22:22.318Z,49.99
2023-04-19T10:23:22.696Z,50.39
2023-04-19T10:24:22.993Z,48.47
2023-04-19T10:25:23.388Z,47.59
2023-04-19T10:26:23.618Z,48.19
2023-04-19T10:27:23.951Z,47.97
2023-04-19T10:28:24.266Z,45.95
2023-04-19T10:29:24.580Z,46.66
2023-04-19T10:30:24.942Z,46.86
2023-04-19T10:31:25.275Z,46.76
2023-04-19T10:32:25.633Z,47.56
2023-04-19T10:33:25.773Z,46.68
2023-04-19T10:34:26.099Z,46.07
2023-04-19T10:35:26.477Z,46.91
2023-04-19T10:36:26.710Z,46.30
2023-04-19T10:37:27.013Z,47.00
2023-04-19T10:38:27.293Z,48.32
2023-04-19T10:39:27.741Z,48.72
2023-04-19T10:40:27.938Z,48.82
2023-04-19T10:41:28.240Z,50.64
2023-04-19T10:42:28.582Z,49.93
2023-04-19T10:43:28.850Z,49.84
2023-04-19T10:44:29.115Z,49.71
2023-04-19T10:45:29.491Z,50.32
2023-04-19T10:46:29.901Z,49.10
2023-04-19T10:47:30.184Z,49.41
2023-04-19T10:48:30.488Z,50.82
2023-04-19T10:49:30.849Z,50.21
2023-04-19T10:50:31.103Z,49.28
2023-04-19T10:51:31.478Z,48.68
2023-04-19T10:52:31.757Z,47.34
2023-04-19T10:53:32.118Z,45.95
2023-04-19T10:54:32.486Z,46.48
2023-04-19T10:55:32.633Z,47.47
2023-04-19T10:56:32.948Z,48.17
2023-04-19T10:57:33.280Z,50.32
2023-04-19T10:58:33.644Z,51.91
2023-04-19T10:59:33.828Z,51.71
2023-04-19T11:00:34.076Z,51.91
2023-04-19T11:01:34.437Z,52.61
2023-04-19T11:02:34.812Z,50.90
2023-04-19T11:03:35.147Z,50.27
2023-04-19T11:04:35.583Z,50.57
2023-04-19T11:05:35.620Z,49.74
2023-04-19T11:06:35.933Z,49.04
2023-04-19T11:07:36.266Z,49.76
2023-04-19T11:08:36.605Z,49.74
2023-04-19T11:09:36.924Z,49.84
2023-04-19T11:10:37.185Z,51.43
2023-04-19T11:11:37.504Z,50.42
2023-04-19T11:12:37.790Z,50.02
2023-04-19T11:13:38.145Z,50.04
2023-04-19T11:14:38.519Z,49.84
2023-04-19T11:15:38.715Z,50.24
2023-04-19T11:16:45.536Z,50.78
2023-04-19T11:17:40.190Z,50.90
2023-04-19T11:18:39.623Z,51.48
2023-04-19T11:19:39.786Z,51.38
2023-04-19T11:20:40.244Z,50.55
2023-04-19T11:21:40.380Z,50.24
2023-04-19T11:22:40.721Z,48.63
2023-04-19T11:23:41.002Z,49.36
2023-04-19T11:24:41.286Z,49.13
2023-04-19T11:25:41.516Z,48.93
2023-04-19T11:26:41.815Z,48.53
2023-04-19T11:27:42.119Z,49.36
2023-04-19T11:28:42.480Z,49.56
2023-04-19T11:29:42.768Z,50.16
2023-04-19T11:30:43.140Z,50.24
2023-04-19T11:31:43.437Z,49.56
2023-04-19T11:32:43.699Z,48.55
2023-04-19T11:33:43.939Z,48.73
2023-04-19T11:34:44.282Z,49.44
2023-04-19T11:35:44.634Z,49.74
2023-04-19T11:36:44.951Z,49.13
2023-04-19T11:37:45.223Z,50.04
2023-04-19T11:38:45.542Z,48.93
2023-04-19T11:39:45.870Z,47.14
2023-04-19T11:40:46.187Z,48.25
2023-04-19T11:41:46.590Z,48.25
2023-04-19T11:42:46.751Z,48.27
2023-04-19T11:43:47.052Z,48.88
2023-04-19T11:44:47.407Z,48.85
2023-04-19T11:45:47.719Z,49.66
2023-04-19T11:46:48.102Z,48.22
2023-04-19T11:47:48.425Z,47.82
2023-04-19T11:48:48.572Z,46.11
2023-04-19T11:49:48.934Z,46.31
2023-04-19T11:50:49.205Z,45.90
2023-04-19T11:51:49.509Z,46.61
2023-04-19T11:52:49.866Z,46.31
2023-04-19T11:53:50.148Z,46.94
2023-04-19T11:54:50.535Z,46.13
2023-04-19T11:55:50.778Z,46.56
2023-04-19T11:56:51.109Z,47.26
2023-04-19T11:57:51.462Z,47.89
2023-04-19T11:58:51.743Z,47.69
2023-04-19T11:59:52.100Z,47.56
2023-04-19T12:00:52.424Z,47.87
2023-04-19T12:01:52.712Z,47.16
2023-04-19T12:02:53.116Z,47.26
2023-04-19T12:03:53.567Z,46.05
2023-04-19T12:04:53.867Z,46.76
2023-04-19T12:05:54.072Z,45.04
2023-04-19T12:06:54.187Z,44.94
2023-04-19T12:07:54.530Z,46.36
2023-04-19T12:08:54.894Z,46.15
2023-04-19T12:09:55.194Z,45.45
2023-04-19T12:10:55.584Z,45.54
2023-04-19T12:11:55.890Z,43.83
2023-04-19T12:12:56.181Z,44.84
2023-04-19T12:13:56.530Z,43.02
2023-04-19T12:14:56.833Z,43.43
2023-04-19T12:15:57.152Z,44.74
2023-04-19T12:16:57.499Z,43.43
2023-04-19T12:17:57.911Z,43.73
2023-04-19T12:18:58.056Z,44.23
2023-04-19T12:19:58.441Z,44.54
2023-04-19T12:21:00.143Z,44.13
2023-04-19T12:21:58.951Z,44.15
2023-04-19T12:22:59.280Z,43.85
2023-04-19T12:23:59.605Z,44.46
2023-04-19T12:24:59.923Z,44.86
2023-04-19T12:26:00.258Z,43.65
2023-04-19T12:27:00.602Z,43.85
2023-04-19T12:28:00.919Z,43.75
2023-04-19T12:29:01.326Z,42.74
2023-04-19T12:30:01.682Z,42.64
2023-04-19T12:31:01.863Z,42.33
2023-04-19T12:32:02.221Z,41.42
2023-04-19T12:33:02.560Z,40.44
2023-04-19T12:34:02.759Z,41.64
2023-04-19T12:35:03.055Z,41.73
2023-04-19T12:36:03.381Z,41.52
2023-04-19T12:37:03.750Z,39.81
2023-04-19T12:38:04.057Z,38.70
2023-04-19T12:39:04.331Z,39.30
2023-04-19T12:40:04.704Z,38.59
2023-04-19T12:41:05.031Z,38.41
2023-04-19T12:42:05.304Z,38.82
2023-04-19T12:43:05.605Z,39.75
2023-04-19T12:44:05.930Z,40.25
2023-04-19T12:45:06.256Z,42.07
2023-04-19T12:46:06.620Z,41.16
2023-04-19T12:47:06.901Z,42.37
2023-04-19T12:48:07.419Z,42.58
2023-04-19T12:49:07.558Z,40.95
2023-04-19T12:50:07.768Z,42.47
2023-04-19T12:51:08.105Z,42.37
2023-04-19T12:52:08.441Z,42.07
2023-04-19T12:53:08.782Z,42.37
2023-04-19T12:54:09.106Z,41.56
2023-04-19T12:55:09.317Z,41.16
2023-04-19T12:56:09.721Z,41.77
2023-04-19T12:57:09.865Z,42.37
2023-04-19T12:58:10.170Z,42.88
2023-04-19T12:59:10.524Z,41.77
2023-04-19T13:00:10.927Z,37.62
2023-04-19T13:01:11.103Z,38.23
2023-04-19T13:02:11.500Z,35.58
2023-04-19T13:03:11.819Z,35.58